sensor_id;sensor_type;location;lat;lon;timestamp;P1;durP1;ratioP1;P2;durP2;ratioP2
67640;SDS011;54434;50.096;20.082;2023-02-01T00:01:30;8.50;;;4.60;;
67640;SDS011;54434;50.096;20.082;2023-02-01T00:04:07;8.10;;;4.30;;
67640;SDS011;54434;50.096;20.082;2023-02-01T00:06:43;8.90;;;5.10;;
67640;SDS011;54434;50.096;20.082;2023-02-01T00:09:20;7.00;;;4.10;;
67640;SDS011;54434;50.096;20.082;2023-02-01T00:11:56;10.00;;;5.20;;
67640;SDS011;54434;50.096;20.082;2023-02-01T00:14:35;9.50;;;5.00;;
67640;SDS011;54434;50.096;20.082;2023-02-01T00:17:13;7.30;;;4.00;;
67640;SDS011;54434;50.096;20.082;2023-02-01T00:19:50;9.10;;;4.60;;
67640;SDS011;54434;50.096;20.082;2023-02-01T00:22:26;6.00;;;3.70;;
67640;SDS011;54434;50.096;20.082;2023-02-01T00:25:03;9.00;;;4.60;;
67640;SDS011;54434;50.096;20.082;2023-02-01T00:27:41;6.70;;;3.60;;
67640;SDS011;54434;50.096;20.082;2023-02-01T00:30:19;7.20;;;3.70;;
67640;SDS011;54434;50.096;20.082;2023-02-01T00:32:56;8.60;;;4.30;;
67640;SDS011;54434;50.096;20.082;2023-02-01T00:35:32;10.50;;;4.30;;
67640;SDS011;54434;50.096;20.082;2023-02-01T00:38:09;8.60;;;4.30;;
67640;SDS011;54434;50.096;20.082;2023-02-01T00:40:46;7.70;;;3.90;;
67640;SDS011;54434;50.096;20.082;2023-02-01T00:43:23;8.30;;;4.00;;
67640;SDS011;54434;50.096;20.082;2023-02-01T00:45:59;7.10;;;4.30;;
67640;SDS011;54434;50.096;20.082;2023-02-01T00:48:36;10.90;;;4.70;;
67640;SDS011;54434;50.096;20.082;2023-02-01T00:51:17;8.50;;;4.00;;
67640;SDS011;54434;50.096;20.082;2023-02-01T00:53:55;9.90;;;4.80;;
67640;SDS011;54434;50.096;20.082;2023-02-01T00:56:31;7.70;;;3.70;;
67640;SDS011;54434;50.096;20.082;2023-02-01T00:59:10;7.60;;;4.50;;
67640;SDS011;54434;50.096;20.082;2023-02-01T01:01:46;7.70;;;4.00;;
67640;SDS011;54434;50.096;20.082;2023-02-01T01:04:23;7.90;;;4.30;;
67640;SDS011;54434;50.096;20.082;2023-02-01T01:07:00;7.60;;;4.50;;
67640;SDS011;54434;50.096;20.082;2023-02-01T01:09:36;7.20;;;3.70;;
67640;SDS011;54434;50.096;20.082;2023-02-01T01:12:13;7.60;;;3.90;;
67640;SDS011;54434;50.096;20.082;2023-02-01T01:14:49;7.70;;;4.20;;
67640;SDS011;54434;50.096;20.082;2023-02-01T01:17:25;8.20;;;5.00;;
67640;SDS011;54434;50.096;20.082;2023-02-01T01:20:02;8.50;;;4.40;;
67640;SDS011;54434;50.096;20.082;2023-02-01T01:22:39;7.60;;;4.20;;
67640;SDS011;54434;50.096;20.082;2023-02-01T01:25:15;5.70;;;3.20;;
67640;SDS011;54434;50.096;20.082;2023-02-01T01:27:52;8.30;;;4.50;;
67640;SDS011;54434;50.096;20.082;2023-02-01T01:30:29;6.90;;;4.10;;
67640;SDS011;54434;50.096;20.082;2023-02-01T01:33:06;7.00;;;3.80;;
67640;SDS011;54434;50.096;20.082;2023-02-01T01:35:43;8.60;;;4.30;;
67640;SDS011;54434;50.096;20.082;2023-02-01T01:38:19;9.60;;;4.40;;
67640;SDS011;54434;50.096;20.082;2023-02-01T01:40:56;6.10;;;3.40;;
67640;SDS011;54434;50.096;20.082;2023-02-01T01:43:51;8.00;;;3.90;;
67640;SDS011;54434;50.096;20.082;2023-02-01T01:46:33;7.30;;;4.10;;
67640;SDS011;54434;50.096;20.082;2023-02-01T01:49:16;7.40;;;3.80;;
67640;SDS011;54434;50.096;20.082;2023-02-01T01:51:59;5.90;;;3.20;;
67640;SDS011;54434;50.096;20.082;2023-02-01T01:54:40;8.10;;;4.10;;
67640;SDS011;54434;50.096;20.082;2023-02-01T01:57:31;7.10;;;3.50;;
67640;SDS011;54434;50.096;20.082;2023-02-01T02:00:17;3.80;;;2.40;;
67640;SDS011;54434;50.096;20.082;2023-02-01T02:03:00;4.30;;;2.30;;
67640;SDS011;54434;50.096;20.082;2023-02-01T02:05:43;6.20;;;2.80;;
67640;SDS011;54434;50.096;20.082;2023-02-01T02:08:21;5.30;;;2.40;;
67640;SDS011;54434;50.096;20.082;2023-02-01T02:10:59;4.20;;;2.40;;
67640;SDS011;54434;50.096;20.082;2023-02-01T02:13:40;4.90;;;2.80;;
67640;SDS011;54434;50.096;20.082;2023-02-01T02:16:42;5.50;;;2.80;;
67640;SDS011;54434;50.096;20.082;2023-02-01T02:27:22;8.00;;;2.70;;
67640;SDS011;54434;50.096;20.082;2023-02-01T02:30:41;7.70;;;2.80;;
67640;SDS011;54434;50.096;20.082;2023-02-01T02:33:55;6.60;;;2.40;;
67640;SDS011;54434;50.096;20.082;2023-02-01T02:36:47;6.30;;;3.00;;
67640;SDS011;54434;50.096;20.082;2023-02-01T02:39:41;7.40;;;3.10;;
67640;SDS011;54434;50.096;20.082;2023-02-01T02:42:32;7.80;;;3.30;;
67640;SDS011;54434;50.096;20.082;2023-02-01T02:45:38;10.10;;;3.00;;
67640;SDS011;54434;50.096;20.082;2023-02-01T02:48:44;8.10;;;2.50;;
67640;SDS011;54434;50.096;20.082;2023-02-01T02:51:30;7.80;;;2.60;;
67640;SDS011;54434;50.096;20.082;2023-02-01T02:54:31;8.10;;;2.60;;
67640;SDS011;54434;50.096;20.082;2023-02-01T02:57:27;7.60;;;2.40;;
67640;SDS011;54434;50.096;20.082;2023-02-01T03:00:29;7.50;;;2.50;;
67640;SDS011;54434;50.096;20.082;2023-02-01T03:03:26;9.20;;;2.50;;
67640;SDS011;54434;50.096;20.082;2023-02-01T03:06:22;7.30;;;2.60;;
67640;SDS011;54434;50.096;20.082;2023-02-01T03:09:03;7.70;;;2.30;;
67640;SDS011;54434;50.096;20.082;2023-02-01T03:11:45;7.60;;;2.80;;
67640;SDS011;54434;50.096;20.082;2023-02-01T03:14:43;6.60;;;2.20;;
67640;SDS011;54434;50.096;20.082;2023-02-01T03:17:30;4.60;;;2.00;;
67640;SDS011;54434;50.096;20.082;2023-02-01T03:20:15;5.00;;;2.00;;
67640;SDS011;54434;50.096;20.082;2023-02-01T03:22:55;5.90;;;1.90;;
67640;SDS011;54434;50.096;20.082;2023-02-01T03:25:33;6.10;;;2.20;;
67640;SDS011;54434;50.096;20.082;2023-02-01T03:28:11;7.20;;;2.20;;
67640;SDS011;54434;50.096;20.082;2023-02-01T03:30:50;8.20;;;2.00;;
67640;SDS011;54434;50.096;20.082;2023-02-01T03:33:28;6.10;;;2.20;;
67640;SDS011;54434;50.096;20.082;2023-02-01T03:36:23;7.80;;;2.00;;
67640;SDS011;54434;50.096;20.082;2023-02-01T03:39:09;6.40;;;2.40;;
67640;SDS011;54434;50.096;20.082;2023-02-01T03:41:53;7.00;;;2.20;;
67640;SDS011;54434;50.096;20.082;2023-02-01T03:44:34;7.80;;;1.80;;
67640;SDS011;54434;50.096;20.082;2023-02-01T03:47:16;4.90;;;1.80;;
67640;SDS011;54434;50.096;20.082;2023-02-01T03:50:00;9.30;;;2.30;;
67640;SDS011;54434;50.096;20.082;2023-02-01T03:52:42;7.00;;;1.90;;
67640;SDS011;54434;50.096;20.082;2023-02-01T03:55:25;6.20;;;1.60;;
67640;SDS011;54434;50.096;20.082;2023-02-01T03:58:06;6.20;;;2.00;;
67640;SDS011;54434;50.096;20.082;2023-02-01T04:00:53;4.70;;;1.90;;
67640;SDS011;54434;50.096;20.082;2023-02-01T04:03:31;6.90;;;1.90;;
67640;SDS011;54434;50.096;20.082;2023-02-01T04:06:08;4.90;;;1.70;;
67640;SDS011;54434;50.096;20.082;2023-02-01T04:08:44;4.10;;;1.90;;
67640;SDS011;54434;50.096;20.082;2023-02-01T04:11:21;6.20;;;2.10;;
67640;SDS011;54434;50.096;20.082;2023-02-01T04:13:58;6.60;;;2.80;;
67640;SDS011;54434;50.096;20.082;2023-02-01T04:16:37;6.70;;;2.30;;
67640;SDS011;54434;50.096;20.082;2023-02-01T04:19:14;9.50;;;2.60;;
67640;SDS011;54434;50.096;20.082;2023-02-01T04:21:51;5.60;;;2.20;;
67640;SDS011;54434;50.096;20.082;2023-02-01T04:24:27;7.40;;;3.20;;
67640;SDS011;54434;50.096;20.082;2023-02-01T04:27:03;7.70;;;2.90;;
67640;SDS011;54434;50.096;20.082;2023-02-01T04:29:40;8.60;;;2.50;;
67640;SDS011;54434;50.096;20.082;2023-02-01T04:32:18;9.50;;;2.80;;
67640;SDS011;54434;50.096;20.082;2023-02-01T04:34:55;7.20;;;2.60;;
67640;SDS011;54434;50.096;20.082;2023-02-01T04:37:31;7.20;;;2.50;;
67640;SDS011;54434;50.096;20.082;2023-02-01T04:40:11;6.80;;;2.30;;
67640;SDS011;54434;50.096;20.082;2023-02-01T04:42:48;7.40;;;2.30;;
67640;SDS011;54434;50.096;20.082;2023-02-01T04:45:24;8.20;;;2.30;;
67640;SDS011;54434;50.096;20.082;2023-02-01T04:48:01;6.60;;;2.00;;
67640;SDS011;54434;50.096;20.082;2023-02-01T04:50:38;5.70;;;2.00;;
67640;SDS011;54434;50.096;20.082;2023-02-01T04:53:14;4.50;;;2.00;;
67640;SDS011;54434;50.096;20.082;2023-02-01T04:55:51;6.50;;;2.40;;
67640;SDS011;54434;50.096;20.082;2023-02-01T04:58:27;7.50;;;2.50;;
67640;SDS011;54434;50.096;20.082;2023-02-01T05:01:05;5.80;;;2.30;;
67640;SDS011;54434;50.096;20.082;2023-02-01T05:03:43;3.90;;;1.80;;
67640;SDS011;54434;50.096;20.082;2023-02-01T05:06:19;5.70;;;2.40;;
67640;SDS011;54434;50.096;20.082;2023-02-01T05:08:56;5.20;;;2.50;;
67640;SDS011;54434;50.096;20.082;2023-02-01T05:11:32;4.20;;;2.20;;
67640;SDS011;54434;50.096;20.082;2023-02-01T05:14:26;5.10;;;2.30;;
67640;SDS011;54434;50.096;20.082;2023-02-01T05:17:03;11.40;;;2.40;;
67640;SDS011;54434;50.096;20.082;2023-02-01T05:19:40;4.90;;;2.10;;
67640;SDS011;54434;50.096;20.082;2023-02-01T05:22:16;8.00;;;2.70;;
67640;SDS011;54434;50.096;20.082;2023-02-01T05:24:52;5.20;;;2.30;;
67640;SDS011;54434;50.096;20.082;2023-02-01T05:27:30;4.60;;;2.50;;
67640;SDS011;54434;50.096;20.082;2023-02-01T05:30:09;4.90;;;2.40;;
67640;SDS011;54434;50.096;20.082;2023-02-01T05:32:46;5.90;;;2.80;;
67640;SDS011;54434;50.096;20.082;2023-02-01T05:35:25;4.10;;;2.20;;
67640;SDS011;54434;50.096;20.082;2023-02-01T05:38:01;7.20;;;2.40;;
67640;SDS011;54434;50.096;20.082;2023-02-01T05:40:38;5.70;;;2.20;;
67640;SDS011;54434;50.096;20.082;2023-02-01T05:43:14;4.50;;;1.80;;
67640;SDS011;54434;50.096;20.082;2023-02-01T05:45:52;9.00;;;3.00;;
67640;SDS011;54434;50.096;20.082;2023-02-01T05:48:29;8.30;;;2.50;;
67640;SDS011;54434;50.096;20.082;2023-02-01T05:51:06;6.60;;;2.60;;
67640;SDS011;54434;50.096;20.082;2023-02-01T05:53:43;7.00;;;2.70;;
67640;SDS011;54434;50.096;20.082;2023-02-01T05:56:19;5.00;;;2.90;;
67640;SDS011;54434;50.096;20.082;2023-02-01T05:58:56;6.70;;;2.80;;
67640;SDS011;54434;50.096;20.082;2023-02-01T06:01:32;5.90;;;2.80;;
67640;SDS011;54434;50.096;20.082;2023-02-01T06:04:09;7.90;;;3.50;;
67640;SDS011;54434;50.096;20.082;2023-02-01T06:06:46;8.00;;;3.60;;
67640;SDS011;54434;50.096;20.082;2023-02-01T06:09:24;6.00;;;3.10;;
67640;SDS011;54434;50.096;20.082;2023-02-01T06:12:01;6.50;;;2.90;;
67640;SDS011;54434;50.096;20.082;2023-02-01T06:14:38;6.80;;;3.50;;
67640;SDS011;54434;50.096;20.082;2023-02-01T06:17:17;8.10;;;3.00;;
67640;SDS011;54434;50.096;20.082;2023-02-01T06:19:54;10.80;;;3.40;;
67640;SDS011;54434;50.096;20.082;2023-02-01T06:22:30;7.50;;;3.30;;
67640;SDS011;54434;50.096;20.082;2023-02-01T06:25:09;7.70;;;3.10;;
67640;SDS011;54434;50.096;20.082;2023-02-01T06:27:46;7.60;;;3.20;;
67640;SDS011;54434;50.096;20.082;2023-02-01T06:30:23;5.80;;;3.00;;
67640;SDS011;54434;50.096;20.082;2023-02-01T06:33:00;7.50;;;3.50;;
67640;SDS011;54434;50.096;20.082;2023-02-01T06:35:37;8.10;;;3.00;;
67640;SDS011;54434;50.096;20.082;2023-02-01T06:38:15;7.70;;;3.30;;
67640;SDS011;54434;50.096;20.082;2023-02-01T06:40:57;7.20;;;3.10;;
67640;SDS011;54434;50.096;20.082;2023-02-01T06:43:33;6.10;;;3.00;;
67640;SDS011;54434;50.096;20.082;2023-02-01T06:46:12;7.20;;;3.00;;
67640;SDS011;54434;50.096;20.082;2023-02-01T06:48:49;7.00;;;3.30;;
67640;SDS011;54434;50.096;20.082;2023-02-01T06:51:27;9.40;;;2.90;;
67640;SDS011;54434;50.096;20.082;2023-02-01T06:54:04;8.80;;;4.10;;
67640;SDS011;54434;50.096;20.082;2023-02-01T06:56:40;10.30;;;3.50;;
67640;SDS011;54434;50.096;20.082;2023-02-01T06:59:16;12.80;;;3.60;;
67640;SDS011;54434;50.096;20.082;2023-02-01T07:01:53;6.30;;;3.20;;
67640;SDS011;54434;50.096;20.082;2023-02-01T07:04:29;8.30;;;3.30;;
67640;SDS011;54434;50.096;20.082;2023-02-01T07:07:06;11.80;;;3.40;;
67640;SDS011;54434;50.096;20.082;2023-02-01T07:09:42;8.10;;;3.10;;
67640;SDS011;54434;50.096;20.082;2023-02-01T07:12:20;8.70;;;3.10;;
67640;SDS011;54434;50.096;20.082;2023-02-01T07:14:56;9.70;;;2.80;;
67640;SDS011;54434;50.096;20.082;2023-02-01T07:17:35;7.50;;;3.20;;
67640;SDS011;54434;50.096;20.082;2023-02-01T07:20:13;9.90;;;3.80;;
67640;SDS011;54434;50.096;20.082;2023-02-01T07:22:50;10.90;;;4.10;;
67640;SDS011;54434;50.096;20.082;2023-02-01T07:25:30;9.70;;;3.40;;
67640;SDS011;54434;50.096;20.082;2023-02-01T07:28:08;6.80;;;2.70;;
67640;SDS011;54434;50.096;20.082;2023-02-01T07:30:45;9.70;;;3.10;;
67640;SDS011;54434;50.096;20.082;2023-02-01T07:33:25;7.50;;;3.10;;
67640;SDS011;54434;50.096;20.082;2023-02-01T07:36:06;10.00;;;2.90;;
67640;SDS011;54434;50.096;20.082;2023-02-01T07:38:51;9.60;;;3.40;;
67640;SDS011;54434;50.096;20.082;2023-02-01T07:41:29;6.90;;;3.40;;
67640;SDS011;54434;50.096;20.082;2023-02-01T07:44:06;7.00;;;2.60;;
67640;SDS011;54434;50.096;20.082;2023-02-01T07:46:42;8.70;;;3.20;;
67640;SDS011;54434;50.096;20.082;2023-02-01T07:49:18;10.70;;;3.20;;
67640;SDS011;54434;50.096;20.082;2023-02-01T07:51:55;7.70;;;2.80;;
67640;SDS011;54434;50.096;20.082;2023-02-01T07:54:31;8.10;;;2.90;;
67640;SDS011;54434;50.096;20.082;2023-02-01T07:57:07;9.10;;;2.90;;
67640;SDS011;54434;50.096;20.082;2023-02-01T07:59:45;9.20;;;2.80;;
67640;SDS011;54434;50.096;20.082;2023-02-01T08:02:44;10.20;;;3.00;;
67640;SDS011;54434;50.096;20.082;2023-02-01T08:05:20;8.00;;;3.50;;
67640;SDS011;54434;50.096;20.082;2023-02-01T08:07:57;12.20;;;3.90;;
67640;SDS011;54434;50.096;20.082;2023-02-01T08:10:34;8.60;;;3.20;;
67640;SDS011;54434;50.096;20.082;2023-02-01T08:13:10;10.40;;;3.50;;
67640;SDS011;54434;50.096;20.082;2023-02-01T08:15:46;9.50;;;3.00;;
67640;SDS011;54434;50.096;20.082;2023-02-01T08:18:23;8.60;;;3.10;;
67640;SDS011;54434;50.096;20.082;2023-02-01T08:21:05;7.10;;;2.70;;
67640;SDS011;54434;50.096;20.082;2023-02-01T08:23:43;6.70;;;2.70;;
67640;SDS011;54434;50.096;20.082;2023-02-01T08:26:22;9.30;;;3.30;;
67640;SDS011;54434;50.096;20.082;2023-02-01T08:29:02;7.50;;;3.10;;
67640;SDS011;54434;50.096;20.082;2023-02-01T08:31:40;9.80;;;3.70;;
67640;SDS011;54434;50.096;20.082;2023-02-01T08:34:17;5.70;;;2.50;;
67640;SDS011;54434;50.096;20.082;2023-02-01T08:36:55;7.50;;;2.80;;
67640;SDS011;54434;50.096;20.082;2023-02-01T08:39:34;8.80;;;3.00;;
67640;SDS011;54434;50.096;20.082;2023-02-01T08:42:11;6.70;;;2.80;;
67640;SDS011;54434;50.096;20.082;2023-02-01T08:45:06;9.00;;;3.10;;
67640;SDS011;54434;50.096;20.082;2023-02-01T08:47:43;9.60;;;3.00;;
67640;SDS011;54434;50.096;20.082;2023-02-01T08:50:22;5.30;;;2.40;;
67640;SDS011;54434;50.096;20.082;2023-02-01T08:53:00;11.10;;;3.30;;
67640;SDS011;54434;50.096;20.082;2023-02-01T08:55:36;7.00;;;2.90;;
67640;SDS011;54434;50.096;20.082;2023-02-01T08:58:12;8.50;;;3.10;;
67640;SDS011;54434;50.096;20.082;2023-02-01T09:00:50;8.90;;;3.60;;
67640;SDS011;54434;50.096;20.082;2023-02-01T09:03:27;7.70;;;3.20;;
67640;SDS011;54434;50.096;20.082;2023-02-01T09:06:08;8.20;;;3.00;;
67640;SDS011;54434;50.096;20.082;2023-02-01T09:08:46;9.50;;;3.60;;
67640;SDS011;54434;50.096;20.082;2023-02-01T09:11:22;7.20;;;2.40;;
67640;SDS011;54434;50.096;20.082;2023-02-01T09:13:59;13.50;;;4.20;;
67640;SDS011;54434;50.096;20.082;2023-02-01T09:16:36;9.70;;;3.00;;
67640;SDS011;54434;50.096;20.082;2023-02-01T09:19:13;6.10;;;2.90;;
67640;SDS011;54434;50.096;20.082;2023-02-01T09:21:59;7.50;;;2.90;;
67640;SDS011;54434;50.096;20.082;2023-02-01T09:24:36;9.80;;;3.50;;
67640;SDS011;54434;50.096;20.082;2023-02-01T09:27:12;6.90;;;2.80;;
67640;SDS011;54434;50.096;20.082;2023-02-01T09:29:49;9.60;;;3.70;;
67640;SDS011;54434;50.096;20.082;2023-02-01T09:32:26;8.40;;;2.80;;
67640;SDS011;54434;50.096;20.082;2023-02-01T09:35:03;6.90;;;2.80;;
67640;SDS011;54434;50.096;20.082;2023-02-01T09:37:40;6.40;;;2.70;;
67640;SDS011;54434;50.096;20.082;2023-02-01T09:40:18;7.80;;;3.10;;
67640;SDS011;54434;50.096;20.082;2023-02-01T09:43:17;7.10;;;3.20;;
67640;SDS011;54434;50.096;20.082;2023-02-01T09:46:10;9.30;;;3.60;;
67640;SDS011;54434;50.096;20.082;2023-02-01T09:48:58;6.60;;;3.10;;
67640;SDS011;54434;50.096;20.082;2023-02-01T09:54:19;7.50;;;2.90;;
67640;SDS011;54434;50.096;20.082;2023-02-01T09:57:02;8.00;;;2.70;;
67640;SDS011;54434;50.096;20.082;2023-02-01T09:59:44;6.90;;;3.00;;
67640;SDS011;54434;50.096;20.082;2023-02-01T10:02:27;8.80;;;3.40;;
67640;SDS011;54434;50.096;20.082;2023-02-01T10:05:10;6.50;;;2.20;;
67640;SDS011;54434;50.096;20.082;2023-02-01T10:08:03;6.70;;;3.00;;
67640;SDS011;54434;50.096;20.082;2023-02-01T10:10:49;8.00;;;2.90;;
67640;SDS011;54434;50.096;20.082;2023-02-01T10:13:45;10.50;;;3.00;;
67640;SDS011;54434;50.096;20.082;2023-02-01T10:16:40;8.20;;;2.80;;
67640;SDS011;54434;50.096;20.082;2023-02-01T10:19:37;9.00;;;2.80;;
67640;SDS011;54434;50.096;20.082;2023-02-01T10:22:31;8.40;;;2.60;;
67640;SDS011;54434;50.096;20.082;2023-02-01T10:25:39;8.10;;;3.00;;
67640;SDS011;54434;50.096;20.082;2023-02-01T10:28:21;7.00;;;2.60;;
67640;SDS011;54434;50.096;20.082;2023-02-01T10:31:00;6.60;;;2.90;;
67640;SDS011;54434;50.096;20.082;2023-02-01T10:33:42;5.00;;;2.30;;
67640;SDS011;54434;50.096;20.082;2023-02-01T10:36:27;5.20;;;2.60;;
67640;SDS011;54434;50.096;20.082;2023-02-01T10:39:12;6.00;;;2.50;;
67640;SDS011;54434;50.096;20.082;2023-02-01T10:41:50;7.60;;;2.70;;
67640;SDS011;54434;50.096;20.082;2023-02-01T10:44:41;9.40;;;2.90;;
67640;SDS011;54434;50.096;20.082;2023-02-01T10:47:19;8.20;;;2.90;;
67640;SDS011;54434;50.096;20.082;2023-02-01T10:50:02;7.00;;;2.10;;
67640;SDS011;54434;50.096;20.082;2023-02-01T10:52:57;7.40;;;2.40;;
67640;SDS011;54434;50.096;20.082;2023-02-01T10:55:48;7.70;;;2.40;;
67640;SDS011;54434;50.096;20.082;2023-02-01T10:58:31;7.20;;;2.40;;
67640;SDS011;54434;50.096;20.082;2023-02-01T11:01:15;7.30;;;2.60;;
67640;SDS011;54434;50.096;20.082;2023-02-01T11:03:59;8.00;;;2.70;;
67640;SDS011;54434;50.096;20.082;2023-02-01T11:06:38;6.10;;;2.40;;
67640;SDS011;54434;50.096;20.082;2023-02-01T11:09:22;8.30;;;2.70;;
67640;SDS011;54434;50.096;20.082;2023-02-01T11:12:01;7.20;;;2.80;;
67640;SDS011;54434;50.096;20.082;2023-02-01T11:14:41;9.90;;;2.80;;
67640;SDS011;54434;50.096;20.082;2023-02-01T11:17:38;11.00;;;3.30;;
67640;SDS011;54434;50.096;20.082;2023-02-01T11:20:21;13.30;;;3.30;;
67640;SDS011;54434;50.096;20.082;2023-02-01T11:23:19;9.40;;;3.20;;
67640;SDS011;54434;50.096;20.082;2023-02-01T11:26:00;9.70;;;3.00;;
67640;SDS011;54434;50.096;20.082;2023-02-01T11:28:53;10.00;;;3.20;;
67640;SDS011;54434;50.096;20.082;2023-02-01T11:31:32;5.90;;;2.80;;
67640;SDS011;54434;50.096;20.082;2023-02-01T11:34:15;6.70;;;2.80;;
67640;SDS011;54434;50.096;20.082;2023-02-01T11:36:58;7.80;;;2.70;;
67640;SDS011;54434;50.096;20.082;2023-02-01T11:39:37;7.30;;;3.20;;
67640;SDS011;54434;50.096;20.082;2023-02-01T11:42:17;7.50;;;3.20;;
67640;SDS011;54434;50.096;20.082;2023-02-01T11:45:20;7.40;;;2.70;;
67640;SDS011;54434;50.096;20.082;2023-02-01T11:48:02;6.40;;;2.80;;
67640;SDS011;54434;50.096;20.082;2023-02-01T11:51:34;6.90;;;2.80;;
67640;SDS011;54434;50.096;20.082;2023-02-01T11:54:37;8.30;;;3.20;;
67640;SDS011;54434;50.096;20.082;2023-02-01T11:57:39;7.70;;;2.90;;
67640;SDS011;54434;50.096;20.082;2023-02-01T12:00:49;9.20;;;3.30;;
67640;SDS011;54434;50.096;20.082;2023-02-01T12:04:11;7.80;;;2.90;;
67640;SDS011;54434;50.096;20.082;2023-02-01T12:07:09;8.10;;;2.80;;
67640;SDS011;54434;50.096;20.082;2023-02-01T12:10:04;11.30;;;2.80;;
67640;SDS011;54434;50.096;20.082;2023-02-01T12:13:03;6.90;;;2.80;;
67640;SDS011;54434;50.096;20.082;2023-02-01T12:16:00;6.50;;;2.80;;
67640;SDS011;54434;50.096;20.082;2023-02-01T12:19:18;6.80;;;3.00;;
67640;SDS011;54434;50.096;20.082;2023-02-01T12:22:28;7.20;;;2.70;;
67640;SDS011;54434;50.096;20.082;2023-02-01T12:25:34;5.30;;;2.60;;
67640;SDS011;54434;50.096;20.082;2023-02-01T12:29:00;10.00;;;3.60;;
67640;SDS011;54434;50.096;20.082;2023-02-01T12:32:00;8.30;;;3.10;;
67640;SDS011;54434;50.096;20.082;2023-02-01T12:35:12;7.90;;;2.90;;
67640;SDS011;54434;50.096;20.082;2023-02-01T12:38:12;11.90;;;4.10;;
67640;SDS011;54434;50.096;20.082;2023-02-01T12:41:16;10.70;;;4.20;;
67640;SDS011;54434;50.096;20.082;2023-02-01T12:44:08;7.90;;;3.50;;
67640;SDS011;54434;50.096;20.082;2023-02-01T12:46:55;10.60;;;3.60;;
67640;SDS011;54434;50.096;20.082;2023-02-01T12:49:47;8.40;;;3.70;;
67640;SDS011;54434;50.096;20.082;2023-02-01T12:52:35;9.80;;;3.70;;
67640;SDS011;54434;50.096;20.082;2023-02-01T12:55:23;7.20;;;3.00;;
67640;SDS011;54434;50.096;20.082;2023-02-01T12:58:14;8.10;;;3.70;;
67640;SDS011;54434;50.096;20.082;2023-02-01T13:00:59;7.00;;;3.00;;
67640;SDS011;54434;50.096;20.082;2023-02-01T13:03:41;8.10;;;2.70;;
67640;SDS011;54434;50.096;20.082;2023-02-01T13:06:28;7.90;;;3.40;;
67640;SDS011;54434;50.096;20.082;2023-02-01T13:09:19;6.90;;;3.30;;
67640;SDS011;54434;50.096;20.082;2023-02-01T13:12:00;10.20;;;3.20;;
67640;SDS011;54434;50.096;20.082;2023-02-01T13:14:51;6.20;;;2.40;;
67640;SDS011;54434;50.096;20.082;2023-02-01T13:17:33;11.20;;;3.90;;
67640;SDS011;54434;50.096;20.082;2023-02-01T13:20:21;6.60;;;3.40;;
67640;SDS011;54434;50.096;20.082;2023-02-01T13:25:49;10.00;;;3.60;;
67640;SDS011;54434;50.096;20.082;2023-02-01T13:28:34;6.10;;;3.00;;
67640;SDS011;54434;50.096;20.082;2023-02-01T13:31:52;9.70;;;3.70;;
67640;SDS011;54434;50.096;20.082;2023-02-01T13:35:21;8.50;;;3.50;;
67640;SDS011;54434;50.096;20.082;2023-02-01T13:38:38;6.80;;;3.20;;
67640;SDS011;54434;50.096;20.082;2023-02-01T13:41:31;8.80;;;3.60;;
67640;SDS011;54434;50.096;20.082;2023-02-01T13:44:19;10.30;;;3.80;;
67640;SDS011;54434;50.096;20.082;2023-02-01T13:47:08;8.20;;;3.80;;
67640;SDS011;54434;50.096;20.082;2023-02-01T13:49:54;11.20;;;4.30;;
67640;SDS011;54434;50.096;20.082;2023-02-01T13:52:39;8.00;;;3.30;;
67640;SDS011;54434;50.096;20.082;2023-02-01T13:55:37;8.80;;;3.20;;
67640;SDS011;54434;50.096;20.082;2023-02-01T13:58:33;7.80;;;3.30;;
67640;SDS011;54434;50.096;20.082;2023-02-01T14:01:47;8.70;;;3.40;;
67640;SDS011;54434;50.096;20.082;2023-02-01T14:04:50;8.60;;;3.20;;
67640;SDS011;54434;50.096;20.082;2023-02-01T14:07:27;9.90;;;3.60;;
67640;SDS011;54434;50.096;20.082;2023-02-01T14:10:48;7.80;;;3.40;;
67640;SDS011;54434;50.096;20.082;2023-02-01T14:13:32;5.90;;;2.70;;
67640;SDS011;54434;50.096;20.082;2023-02-01T14:16:17;11.30;;;3.60;;
67640;SDS011;54434;50.096;20.082;2023-02-01T14:19:03;7.90;;;4.10;;
67640;SDS011;54434;50.096;20.082;2023-02-01T14:21:54;6.60;;;3.10;;
67640;SDS011;54434;50.096;20.082;2023-02-01T14:24:34;6.60;;;3.30;;
67640;SDS011;54434;50.096;20.082;2023-02-01T14:27:21;8.00;;;3.10;;
67640;SDS011;54434;50.096;20.082;2023-02-01T14:30:05;9.70;;;3.30;;
67640;SDS011;54434;50.096;20.082;2023-02-01T14:32:50;7.90;;;3.40;;
67640;SDS011;54434;50.096;20.082;2023-02-01T14:35:28;10.00;;;3.90;;
67640;SDS011;54434;50.096;20.082;2023-02-01T14:38:05;9.30;;;3.60;;
67640;SDS011;54434;50.096;20.082;2023-02-01T14:40:44;10.10;;;3.60;;
67640;SDS011;54434;50.096;20.082;2023-02-01T14:43:51;9.10;;;3.60;;
67640;SDS011;54434;50.096;20.082;2023-02-01T14:47:09;8.00;;;3.60;;
67640;SDS011;54434;50.096;20.082;2023-02-01T14:53:27;6.20;;;3.30;;
67640;SDS011;54434;50.096;20.082;2023-02-01T14:56:14;6.00;;;3.30;;
67640;SDS011;54434;50.096;20.082;2023-02-01T14:59:02;7.10;;;3.10;;
67640;SDS011;54434;50.096;20.082;2023-02-01T15:01:52;7.00;;;3.20;;
67640;SDS011;54434;50.096;20.082;2023-02-01T15:04:42;7.30;;;3.30;;
67640;SDS011;54434;50.096;20.082;2023-02-01T15:07:19;6.10;;;2.80;;
67640;SDS011;54434;50.096;20.082;2023-02-01T15:09:59;6.60;;;2.60;;
67640;SDS011;54434;50.096;20.082;2023-02-01T15:12:41;6.20;;;2.90;;
67640;SDS011;54434;50.096;20.082;2023-02-01T15:15:24;7.30;;;3.10;;
67640;SDS011;54434;50.096;20.082;2023-02-01T15:18:01;6.80;;;3.00;;
67640;SDS011;54434;50.096;20.082;2023-02-01T15:20:37;6.50;;;2.60;;
67640;SDS011;54434;50.096;20.082;2023-02-01T15:23:34;5.80;;;2.30;;
67640;SDS011;54434;50.096;20.082;2023-02-01T15:26:11;5.60;;;2.40;;
67640;SDS011;54434;50.096;20.082;2023-02-01T15:29:01;5.50;;;3.10;;
67640;SDS011;54434;50.096;20.082;2023-02-01T15:31:40;4.90;;;2.60;;
67640;SDS011;54434;50.096;20.082;2023-02-01T15:34:20;5.40;;;2.60;;
67640;SDS011;54434;50.096;20.082;2023-02-01T15:37:06;5.70;;;2.80;;
67640;SDS011;54434;50.096;20.082;2023-02-01T15:40:22;4.50;;;2.70;;
67640;SDS011;54434;50.096;20.082;2023-02-01T15:43:00;5.60;;;2.50;;
67640;SDS011;54434;50.096;20.082;2023-02-01T15:45:36;5.50;;;2.00;;
67640;SDS011;54434;50.096;20.082;2023-02-01T15:48:22;6.10;;;2.80;;
67640;SDS011;54434;50.096;20.082;2023-02-01T15:51:01;4.90;;;2.90;;
67640;SDS011;54434;50.096;20.082;2023-02-01T15:53:38;6.00;;;3.10;;
67640;SDS011;54434;50.096;20.082;2023-02-01T15:56:27;7.20;;;3.40;;
67640;SDS011;54434;50.096;20.082;2023-02-01T15:59:24;7.00;;;3.00;;
67640;SDS011;54434;50.096;20.082;2023-02-01T16:02:04;7.30;;;3.60;;
67640;SDS011;54434;50.096;20.082;2023-02-01T16:04:54;9.70;;;3.90;;
67640;SDS011;54434;50.096;20.082;2023-02-01T16:07:32;6.70;;;3.60;;
67640;SDS011;54434;50.096;20.082;2023-02-01T16:10:26;7.10;;;3.20;;
67640;SDS011;54434;50.096;20.082;2023-02-01T16:13:03;6.70;;;3.70;;
67640;SDS011;54434;50.096;20.082;2023-02-01T16:15:39;4.70;;;2.70;;
67640;SDS011;54434;50.096;20.082;2023-02-01T16:18:16;8.70;;;4.10;;
67640;SDS011;54434;50.096;20.082;2023-02-01T16:20:53;8.30;;;4.30;;
67640;SDS011;54434;50.096;20.082;2023-02-01T16:23:29;7.50;;;4.10;;
67640;SDS011;54434;50.096;20.082;2023-02-01T16:26:06;8.00;;;4.50;;
67640;SDS011;54434;50.096;20.082;2023-02-01T16:28:43;7.90;;;4.50;;